sensor_id;sensor_type;location;lat;lon;timestamp;temperature;humidity
63317;DHT22;49822;41.468;13.560;2022-09-11T00:01:33;18.80;79.40
63317;DHT22;49822;41.468;13.560;2022-09-11T00:04:01;18.40;80.20
63317;DHT22;49822;41.468;13.560;2022-09-11T00:06:29;18.40;80.80
63317;DHT22;49822;41.468;13.560;2022-09-11T00:09:00;18.50;80.90
63317;DHT22;49822;41.468;13.560;2022-09-11T00:11:32;18.70;79.70
63317;DHT22;49822;41.468;13.560;2022-09-11T00:13:59;18.60;79.70
63317;DHT22;49822;41.468;13.560;2022-09-11T00:16:35;18.20;80.60
63317;DHT22;49822;41.468;13.560;2022-09-11T00:19:06;17.80;85.20
63317;DHT22;49822;41.468;13.560;2022-09-11T00:21:34;17.90;84.70
63317;DHT22;49822;41.468;13.560;2022-09-11T00:24:03;18.10;83.20
63317;DHT22;49822;41.468;13.560;2022-09-11T00:26:31;18.40;82.00
63317;DHT22;49822;41.468;13.560;2022-09-11T00:28:58;18.50;80.80
63317;DHT22;49822;41.468;13.560;2022-09-11T00:31:28;18.50;80.20
63317;DHT22;49822;41.468;13.560;2022-09-11T00:33:57;18.50;79.40
63317;DHT22;49822;41.468;13.560;2022-09-11T00:36:27;18.60;79.40
63317;DHT22;49822;41.468;13.560;2022-09-11T00:38:55;18.60;78.90
63317;DHT22;49822;41.468;13.560;2022-09-11T00:41:30;18.70;78.60
63317;DHT22;49822;41.468;13.560;2022-09-11T00:44:00;18.10;81.40
63317;DHT22;49822;41.468;13.560;2022-09-11T00:46:41;18.00;82.40
63317;DHT22;49822;41.468;13.560;2022-09-11T00:49:34;18.20;82.60
63317;DHT22;49822;41.468;13.560;2022-09-11T00:54:43;17.90;84.00
63317;DHT22;49822;41.468;13.560;2022-09-11T00:57:12;17.90;84.20
63317;DHT22;49822;41.468;13.560;2022-09-11T00:59:41;17.80;83.00
63317;DHT22;49822;41.468;13.560;2022-09-11T01:02:11;17.80;83.30
63317;DHT22;49822;41.468;13.560;2022-09-11T01:04:41;18.00;83.20
63317;DHT22;49822;41.468;13.560;2022-09-11T01:07:10;18.10;82.30
63317;DHT22;49822;41.468;13.560;2022-09-11T01:09:38;18.00;80.30
63317;DHT22;49822;41.468;13.560;2022-09-11T01:14:56;17.60;83.00
63317;DHT22;49822;41.468;13.560;2022-09-11T01:17:41;17.80;82.80
63317;DHT22;49822;41.468;13.560;2022-09-11T01:20:35;17.70;82.40
63317;DHT22;49822;41.468;13.560;2022-09-11T01:23:26;17.20;84.60
63317;DHT22;49822;41.468;13.560;2022-09-11T01:26:36;17.20;85.80
63317;DHT22;49822;41.468;13.560;2022-09-11T01:29:31;17.50;84.60
63317;DHT22;49822;41.468;13.560;2022-09-11T01:32:18;17.60;83.40
63317;DHT22;49822;41.468;13.560;2022-09-11T01:35:06;17.80;82.50
63317;DHT22;49822;41.468;13.560;2022-09-11T01:37:50;17.60;81.90
63317;DHT22;49822;41.468;13.560;2022-09-11T01:40:25;17.50;83.50
63317;DHT22;49822;41.468;13.560;2022-09-11T01:43:05;17.70;83.60
63317;DHT22;49822;41.468;13.560;2022-09-11T01:45:37;17.80;81.70
63317;DHT22;49822;41.468;13.560;2022-09-11T01:48:11;17.80;81.40
63317;DHT22;49822;41.468;13.560;2022-09-11T01:50:45;17.80;80.80
63317;DHT22;49822;41.468;13.560;2022-09-11T01:53:16;17.90;81.20
63317;DHT22;49822;41.468;13.560;2022-09-11T01:55:52;18.00;81.50
63317;DHT22;49822;41.468;13.560;2022-09-11T01:58:28;17.80;80.40
63317;DHT22;49822;41.468;13.560;2022-09-11T02:01:12;17.40;82.90
63317;DHT22;49822;41.468;13.560;2022-09-11T02:03:46;17.40;84.00
63317;DHT22;49822;41.468;13.560;2022-09-11T02:06:34;17.50;83.50
63317;DHT22;49822;41.468;13.560;2022-09-11T02:09:06;17.80;82.50
63317;DHT22;49822;41.468;13.560;2022-09-11T02:11:39;17.20;83.30
63317;DHT22;49822;41.468;13.560;2022-09-11T02:14:15;17.00;85.70
63317;DHT22;49822;41.468;13.560;2022-09-11T02:19:45;16.70;84.50
63317;DHT22;49822;41.468;13.560;2022-09-11T02:22:13;16.50;89.00
63317;DHT22;49822;41.468;13.560;2022-09-11T02:24:40;16.70;88.30
63317;DHT22;49822;41.468;13.560;2022-09-11T02:27:13;17.00;85.80
63317;DHT22;49822;41.468;13.560;2022-09-11T02:29:42;16.70;85.50
63317;DHT22;49822;41.468;13.560;2022-09-11T02:32:10;16.50;87.80
63317;DHT22;49822;41.468;13.560;2022-09-11T02:34:42;16.60;87.80
63317;DHT22;49822;41.468;13.560;2022-09-11T02:48:50;17.50;82.70
63317;DHT22;49822;41.468;13.560;2022-09-11T02:51:48;17.70;81.90
63317;DHT22;49822;41.468;13.560;2022-09-11T02:57:32;17.20;83.10
63317;DHT22;49822;41.468;13.560;2022-09-11T03:00:07;16.90;84.00
63317;DHT22;49822;41.468;13.560;2022-09-11T03:02:38;16.50;87.40
63317;DHT22;49822;41.468;13.560;2022-09-11T03:05:07;16.60;88.70
63317;DHT22;49822;41.468;13.560;2022-09-11T03:07:35;16.90;87.60
63317;DHT22;49822;41.468;13.560;2022-09-11T03:10:05;17.10;85.60
63317;DHT22;49822;41.468;13.560;2022-09-11T03:12:34;17.20;83.00
63317;DHT22;49822;41.468;13.560;2022-09-11T03:15:05;17.30;83.30
63317;DHT22;49822;41.468;13.560;2022-09-11T03:17:34;17.40;82.90
63317;DHT22;49822;41.468;13.560;2022-09-11T03:20:04;17.10;81.60
63317;DHT22;49822;41.468;13.560;2022-09-11T03:22:32;16.90;84.00
63317;DHT22;49822;41.468;13.560;2022-09-11T03:24:59;17.00;84.10
63317;DHT22;49822;41.468;13.560;2022-09-11T03:27:29;17.00;85.00
63317;DHT22;49822;41.468;13.560;2022-09-11T03:29:57;17.00;85.10
63317;DHT22;49822;41.468;13.560;2022-09-11T03:32:25;17.00;84.30
63317;DHT22;49822;41.468;13.560;2022-09-11T03:34:54;17.00;84.20
63317;DHT22;49822;41.468;13.560;2022-09-11T03:37:22;17.00;84.00
63317;DHT22;49822;41.468;13.560;2022-09-11T03:39:50;17.10;83.00
63317;DHT22;49822;41.468;13.560;2022-09-11T03:42:20;16.60;84.40
63317;DHT22;49822;41.468;13.560;2022-09-11T03:44:48;16.40;87.60
63317;DHT22;49822;41.468;13.560;2022-09-11T03:47:16;16.50;88.00
63317;DHT22;49822;41.468;13.560;2022-09-11T03:49:43;16.70;86.70
63317;DHT22;49822;41.468;13.560;2022-09-11T03:52:11;16.80;85.00
63317;DHT22;49822;41.468;13.560;2022-09-11T03:54:38;17.00;84.70
63317;DHT22;49822;41.468;13.560;2022-09-11T03:57:06;17.00;82.10
63317;DHT22;49822;41.468;13.560;2022-09-11T03:59:36;17.00;83.70
63317;DHT22;49822;41.468;13.560;2022-09-11T04:02:05;17.00;85.30
63317;DHT22;49822;41.468;13.560;2022-09-11T04:04:34;17.10;84.00
63317;DHT22;49822;41.468;13.560;2022-09-11T04:07:03;17.20;83.40
63317;DHT22;49822;41.468;13.560;2022-09-11T04:09:32;17.40;83.00
63317;DHT22;49822;41.468;13.560;2022-09-11T04:12:00;17.50;83.40
63317;DHT22;49822;41.468;13.560;2022-09-11T04:14:28;17.50;84.10
63317;DHT22;49822;41.468;13.560;2022-09-11T04:16:57;17.40;83.30
63317;DHT22;49822;41.468;13.560;2022-09-11T04:19:27;16.80;83.10
63317;DHT22;49822;41.468;13.560;2022-09-11T04:21:55;16.70;84.00
63317;DHT22;49822;41.468;13.560;2022-09-11T04:24:23;16.90;84.30
63317;DHT22;49822;41.468;13.560;2022-09-11T04:26:51;17.00;84.40
63317;DHT22;49822;41.468;13.560;2022-09-11T04:29:27;17.00;83.90
63317;DHT22;49822;41.468;13.560;2022-09-11T04:31:55;17.20;82.80
63317;DHT22;49822;41.468;13.560;2022-09-11T04:34:27;17.00;83.30
63317;DHT22;49822;41.468;13.560;2022-09-11T04:36:55;17.00;83.40
63317;DHT22;49822;41.468;13.560;2022-09-11T04:39:23;16.90;83.90
63317;DHT22;49822;41.468;13.560;2022-09-11T04:41:50;16.80;85.40
63317;DHT22;49822;41.468;13.560;2022-09-11T04:44:18;16.80;86.20
63317;DHT22;49822;41.468;13.560;2022-09-11T04:46:47;16.90;86.30
63317;DHT22;49822;41.468;13.560;2022-09-11T04:49:16;16.90;86.40
63317;DHT22;49822;41.468;13.560;2022-09-11T04:51:45;17.00;86.00
63317;DHT22;49822;41.468;13.560;2022-09-11T04:54:17;17.20;86.20
63317;DHT22;49822;41.468;13.560;2022-09-11T04:56:47;17.20;86.10
63317;DHT22;49822;41.468;13.560;2022-09-11T04:59:18;17.20;86.00
63317;DHT22;49822;41.468;13.560;2022-09-11T05:02:07;17.10;85.10
63317;DHT22;49822;41.468;13.560;2022-09-11T05:04:39;17.00;86.30
63317;DHT22;49822;41.468;13.560;2022-09-11T05:07:12;17.20;86.10
63317;DHT22;49822;41.468;13.560;2022-09-11T05:09:46;17.40;85.30
63317;DHT22;49822;41.468;13.560;2022-09-11T05:12:16;17.40;85.20
63317;DHT22;49822;41.468;13.560;2022-09-11T05:14:45;17.50;84.60
63317;DHT22;49822;41.468;13.560;2022-09-11T05:17:13;17.40;85.40
63317;DHT22;49822;41.468;13.560;2022-09-11T05:19:42;17.50;85.50
63317;DHT22;49822;41.468;13.560;2022-09-11T05:22:10;17.60;84.80
63317;DHT22;49822;41.468;13.560;2022-09-11T05:24:43;17.80;84.20
63317;DHT22;49822;41.468;13.560;2022-09-11T05:27:11;18.00;83.70
63317;DHT22;49822;41.468;13.560;2022-09-11T05:29:40;17.90;83.90
63317;DHT22;49822;41.468;13.560;2022-09-11T05:32:11;18.00;83.50
63317;DHT22;49822;41.468;13.560;2022-09-11T05:34:40;18.10;83.70
63317;DHT22;49822;41.468;13.560;2022-09-11T05:37:11;18.20;83.70
63317;DHT22;49822;41.468;13.560;2022-09-11T05:39:43;18.20;83.20
63317;DHT22;49822;41.468;13.560;2022-09-11T05:42:12;18.20;83.00
63317;DHT22;49822;41.468;13.560;2022-09-11T05:44:45;17.90;84.80
63317;DHT22;49822;41.468;13.560;2022-09-11T05:47:14;17.80;85.50
63317;DHT22;49822;41.468;13.560;2022-09-11T05:49:47;17.80;86.20
63317;DHT22;49822;41.468;13.560;2022-09-11T05:52:16;17.90;86.00
63317;DHT22;49822;41.468;13.560;2022-09-11T05:54:43;18.10;85.00
63317;DHT22;49822;41.468;13.560;2022-09-11T05:57:13;18.40;83.60
63317;DHT22;49822;41.468;13.560;2022-09-11T05:59:42;18.70;82.70
63317;DHT22;49822;41.468;13.560;2022-09-11T06:02:10;18.90;81.80
63317;DHT22;49822;41.468;13.560;2022-09-11T06:04:49;19.00;82.20
63317;DHT22;49822;41.468;13.560;2022-09-11T06:07:21;19.00;82.60
63317;DHT22;49822;41.468;13.560;2022-09-11T06:09:52;19.00;83.40
63317;DHT22;49822;41.468;13.560;2022-09-11T06:12:21;18.90;82.60
63317;DHT22;49822;41.468;13.560;2022-09-11T06:14:49;18.90;82.80
63317;DHT22;49822;41.468;13.560;2022-09-11T06:17:17;18.80;83.20
63317;DHT22;49822;41.468;13.560;2022-09-11T06:19:45;18.90;83.00
63317;DHT22;49822;41.468;13.560;2022-09-11T06:22:14;19.10;82.80
63317;DHT22;49822;41.468;13.560;2022-09-11T06:24:43;19.20;83.00
63317;DHT22;49822;41.468;13.560;2022-09-11T06:27:11;19.30;82.00
63317;DHT22;49822;41.468;13.560;2022-09-11T06:29:42;19.40;82.00
63317;DHT22;49822;41.468;13.560;2022-09-11T06:32:17;19.50;81.00
63317;DHT22;49822;41.468;13.560;2022-09-11T06:34:47;19.50;81.80
63317;DHT22;49822;41.468;13.560;2022-09-11T06:37:14;19.70;80.80
63317;DHT22;49822;41.468;13.560;2022-09-11T06:39:42;19.70;81.00
63317;DHT22;49822;41.468;13.560;2022-09-11T06:42:16;19.90;80.10
63317;DHT22;49822;41.468;13.560;2022-09-11T06:44:46;20.00;78.40
63317;DHT22;49822;41.468;13.560;2022-09-11T06:47:17;20.10;79.20
63317;DHT22;49822;41.468;13.560;2022-09-11T06:49:45;20.10;78.80
63317;DHT22;49822;41.468;13.560;2022-09-11T06:52:32;20.30;78.70
63317;DHT22;49822;41.468;13.560;2022-09-11T06:55:13;20.30;78.30
63317;DHT22;49822;41.468;13.560;2022-09-11T06:57:47;20.20;79.00
63317;DHT22;49822;41.468;13.560;2022-09-11T07:00:21;20.30;77.70
63317;DHT22;49822;41.468;13.560;2022-09-11T07:02:53;20.30;78.80
63317;DHT22;49822;41.468;13.560;2022-09-11T07:05:21;20.30;78.80
63317;DHT22;49822;41.468;13.560;2022-09-11T07:07:52;20.40;76.80
63317;DHT22;49822;41.468;13.560;2022-09-11T07:10:21;20.40;76.50
63317;DHT22;49822;41.468;13.560;2022-09-11T07:12:53;20.60;77.50
63317;DHT22;49822;41.468;13.560;2022-09-11T07:15:24;20.80;76.10
63317;DHT22;49822;41.468;13.560;2022-09-11T07:17:52;20.90;76.20
63317;DHT22;49822;41.468;13.560;2022-09-11T07:20:21;21.00;76.50
63317;DHT22;49822;41.468;13.560;2022-09-11T07:22:50;21.30;75.20
63317;DHT22;49822;41.468;13.560;2022-09-11T07:25:18;21.50;74.10
63317;DHT22;49822;41.468;13.560;2022-09-11T07:27:47;21.70;72.90
63317;DHT22;49822;41.468;13.560;2022-09-11T07:30:15;21.90;72.00
63317;DHT22;49822;41.468;13.560;2022-09-11T07:32:47;22.00;71.60
63317;DHT22;49822;41.468;13.560;2022-09-11T07:35:17;22.00;72.00
63317;DHT22;49822;41.468;13.560;2022-09-11T07:37:51;22.10;71.10
63317;DHT22;49822;41.468;13.560;2022-09-11T07:40:24;21.90;70.50
63317;DHT22;49822;41.468;13.560;2022-09-11T07:42:52;21.80;72.00
63317;DHT22;49822;41.468;13.560;2022-09-11T07:45:20;21.90;71.50
63317;DHT22;49822;41.468;13.560;2022-09-11T07:47:50;22.00;71.50
63317;DHT22;49822;41.468;13.560;2022-09-11T07:50:20;22.20;69.80
63317;DHT22;49822;41.468;13.560;2022-09-11T07:52:51;22.30;70.70
63317;DHT22;49822;41.468;13.560;2022-09-11T07:55:20;22.50;69.90
63317;DHT22;49822;41.468;13.560;2022-09-11T07:57:49;22.60;68.50
63317;DHT22;49822;41.468;13.560;2022-09-11T08:00:19;22.70;68.20
63317;DHT22;49822;41.468;13.560;2022-09-11T08:02:47;22.70;67.30
63317;DHT22;49822;41.468;13.560;2022-09-11T08:05:22;22.70;69.40
63317;DHT22;49822;41.468;13.560;2022-09-11T08:07:50;22.70;68.10
63317;DHT22;49822;41.468;13.560;2022-09-11T08:10:19;22.80;67.50
63317;DHT22;49822;41.468;13.560;2022-09-11T08:12:54;22.80;68.20
63317;DHT22;49822;41.468;13.560;2022-09-11T08:15:33;23.00;67.20
63317;DHT22;49822;41.468;13.560;2022-09-11T08:18:05;23.30;66.10
63317;DHT22;49822;41.468;13.560;2022-09-11T08:20:32;23.40;65.50
63317;DHT22;49822;41.468;13.560;2022-09-11T08:23:00;23.40;65.20
63317;DHT22;49822;41.468;13.560;2022-09-11T08:25:27;23.50;65.10
63317;DHT22;49822;41.468;13.560;2022-09-11T08:27:56;23.40;64.10
63317;DHT22;49822;41.468;13.560;2022-09-11T08:30:24;23.40;64.70
63317;DHT22;49822;41.468;13.560;2022-09-11T08:32:53;23.50;65.80
63317;DHT22;49822;41.468;13.560;2022-09-11T08:35:21;23.50;66.20
63317;DHT22;49822;41.468;13.560;2022-09-11T08:37:50;23.70;64.60
63317;DHT22;49822;41.468;13.560;2022-09-11T08:40:21;23.80;64.40
63317;DHT22;49822;41.468;13.560;2022-09-11T08:42:51;23.90;66.50
63317;DHT22;49822;41.468;13.560;2022-09-11T08:45:21;24.00;64.00
63317;DHT22;49822;41.468;13.560;2022-09-11T08:47:56;23.90;64.50
63317;DHT22;49822;41.468;13.560;2022-09-11T08:50:27;23.90;65.30
63317;DHT22;49822;41.468;13.560;2022-09-11T08:53:00;24.20;64.40
63317;DHT22;49822;41.468;13.560;2022-09-11T08:55:36;24.40;64.90
63317;DHT22;49822;41.468;13.560;2022-09-11T08:58:37;24.30;65.60
63317;DHT22;49822;41.468;13.560;2022-09-11T09:19:43;24.80;61.80
63317;DHT22;49822;41.468;13.560;2022-09-11T09:22:22;25.00;61.30
63317;DHT22;49822;41.468;13.560;2022-09-11T09:24:57;25.20;60.20
63317;DHT22;49822;41.468;13.560;2022-09-11T09:27:37;25.30;59.60
63317;DHT22;49822;41.468;13.560;2022-09-11T09:30:17;25.30;60.40
63317;DHT22;49822;41.468;13.560;2022-09-11T09:32:54;25.50;59.80
63317;DHT22;49822;41.468;13.560;2022-09-11T09:35:31;25.50;58.60
63317;DHT22;49822;41.468;13.560;2022-09-11T09:38:06;25.50;59.10
63317;DHT22;49822;41.468;13.560;2022-09-11T09:40:35;25.40;59.60
63317;DHT22;49822;41.468;13.560;2022-09-11T09:43:38;25.40;59.30
63317;DHT22;49822;41.468;13.560;2022-09-11T09:46:04;25.50;60.00
63317;DHT22;49822;41.468;13.560;2022-09-11T09:48:36;25.60;58.30
63317;DHT22;49822;41.468;13.560;2022-09-11T09:51:11;25.60;59.00
63317;DHT22;49822;41.468;13.560;2022-09-11T09:53:43;25.80;59.90
63317;DHT22;49822;41.468;13.560;2022-09-11T09:56:15;26.00;58.50
63317;DHT22;49822;41.468;13.560;2022-09-11T10:04:12;26.10;56.90
63317;DHT22;49822;41.468;13.560;2022-09-11T10:06:41;26.40;58.00
63317;DHT22;49822;41.468;13.560;2022-09-11T10:09:47;26.60;56.10
63317;DHT22;49822;41.468;13.560;2022-09-11T10:12:20;26.50;57.70
63317;DHT22;49822;41.468;13.560;2022-09-11T10:14:59;26.60;57.80
63317;DHT22;49822;41.468;13.560;2022-09-11T10:22:45;26.90;56.00
63317;DHT22;49822;41.468;13.560;2022-09-11T10:25:16;26.90;55.00
63317;DHT22;49822;41.468;13.560;2022-09-11T10:30:32;26.20;56.70
63317;DHT22;49822;41.468;13.560;2022-09-11T10:36:07;26.20;56.90
63317;DHT22;49822;41.468;13.560;2022-09-11T10:38:36;26.40;57.40
63317;DHT22;49822;41.468;13.560;2022-09-11T10:46:42;26.40;55.50
63317;DHT22;49822;41.468;13.560;2022-09-11T10:49:19;26.60;56.50
63317;DHT22;49822;41.468;13.560;2022-09-11T10:52:02;27.20;56.60
63317;DHT22;49822;41.468;13.560;2022-09-11T10:55:06;27.80;54.30
63317;DHT22;49822;41.468;13.560;2022-09-11T10:57:48;27.90;53.50
63317;DHT22;49822;41.468;13.560;2022-09-11T11:00:30;28.10;53.90
63317;DHT22;49822;41.468;13.560;2022-09-11T11:03:10;28.30;51.50
63317;DHT22;49822;41.468;13.560;2022-09-11T11:16:47;28.60;50.20
63317;DHT22;49822;41.468;13.560;2022-09-11T11:32:23;28.00;49.00
63317;DHT22;49822;41.468;13.560;2022-09-11T11:42:28;29.00;45.90
63317;DHT22;49822;41.468;13.560;2022-09-11T11:47:39;29.70;44.60
63317;DHT22;49822;41.468;13.560;2022-09-11T11:53:01;29.70;42.20
63317;DHT22;49822;41.468;13.560;2022-09-11T11:58:51;29.40;44.50
63317;DHT22;49822;41.468;13.560;2022-09-11T12:07:04;30.10;41.90
63317;DHT22;49822;41.468;13.560;2022-09-11T12:09:34;29.90;42.10
63317;DHT22;49822;41.468;13.560;2022-09-11T12:12:04;30.00;41.80
63317;DHT22;49822;41.468;13.560;2022-09-11T12:14:33;29.50;42.40
63317;DHT22;49822;41.468;13.560;2022-09-11T12:17:24;29.40;43.60
63317;DHT22;49822;41.468;13.560;2022-09-11T12:22:48;30.10;41.20
63317;DHT22;49822;41.468;13.560;2022-09-11T12:32:45;30.50;41.10
63317;DHT22;49822;41.468;13.560;2022-09-11T12:35:17;30.40;39.50
63317;DHT22;49822;41.468;13.560;2022-09-11T12:40:54;30.30;41.20
63317;DHT22;49822;41.468;13.560;2022-09-11T12:43:46;30.50;41.60
63317;DHT22;49822;41.468;13.560;2022-09-11T12:51:41;30.30;42.30
63317;DHT22;49822;41.468;13.560;2022-09-11T12:54:29;30.10;43.00
63317;DHT22;49822;41.468;13.560;2022-09-11T12:57:37;30.30;40.40
63317;DHT22;49822;41.468;13.560;2022-09-11T13:00:06;30.10;39.50
63317;DHT22;49822;41.468;13.560;2022-09-11T13:02:40;29.70;40.70
63317;DHT22;49822;41.468;13.560;2022-09-11T13:05:28;29.70;41.50
63317;DHT22;49822;41.468;13.560;2022-09-11T13:08:16;29.50;42.20
63317;DHT22;49822;41.468;13.560;2022-09-11T13:10:44;29.50;44.30
63317;DHT22;49822;41.468;13.560;2022-09-11T13:16:22;29.50;44.80
63317;DHT22;49822;41.468;13.560;2022-09-11T13:18:55;30.00;43.10
63317;DHT22;49822;41.468;13.560;2022-09-11T13:21:24;30.10;41.30
63317;DHT22;49822;41.468;13.560;2022-09-11T13:23:52;30.10;43.00
63317;DHT22;49822;41.468;13.560;2022-09-11T13:26:26;30.30;41.90
63317;DHT22;49822;41.468;13.560;2022-09-11T13:28:59;30.30;42.30
63317;DHT22;49822;41.468;13.560;2022-09-11T13:31:33;29.50;45.60
63317;DHT22;49822;41.468;13.560;2022-09-11T13:34:05;29.50;44.10
63317;DHT22;49822;41.468;13.560;2022-09-11T13:36:34;28.60;45.40
63317;DHT22;49822;41.468;13.560;2022-09-11T13:39:03;28.80;45.90
63317;DHT22;49822;41.468;13.560;2022-09-11T13:41:35;29.20;44.80
63317;DHT22;49822;41.468;13.560;2022-09-11T13:44:09;28.90;45.30
63317;DHT22;49822;41.468;13.560;2022-09-11T13:46:49;28.70;46.80
63317;DHT22;49822;41.468;13.560;2022-09-11T13:49:36;29.10;47.30
63317;DHT22;49822;41.468;13.560;2022-09-11T13:52:09;28.90;49.50
63317;DHT22;49822;41.468;13.560;2022-09-11T13:54:57;28.70;47.60
63317;DHT22;49822;41.468;13.560;2022-09-11T13:57:26;28.40;47.80
63317;DHT22;49822;41.468;13.560;2022-09-11T13:59:55;28.40;49.70
63317;DHT22;49822;41.468;13.560;2022-09-11T14:02:45;28.30;45.10
63317;DHT22;49822;41.468;13.560;2022-09-11T14:05:22;28.10;49.30
63317;DHT22;49822;41.468;13.560;2022-09-11T14:08:03;28.20;48.00
63317;DHT22;49822;41.468;13.560;2022-09-11T14:10:46;28.30;47.60
63317;DHT22;49822;41.468;13.560;2022-09-11T14:15:55;28.10;50.50
63317;DHT22;49822;41.468;13.560;2022-09-11T14:18:31;28.10;49.00
63317;DHT22;49822;41.468;13.560;2022-09-11T14:21:03;28.20;49.60
63317;DHT22;49822;41.468;13.560;2022-09-11T14:23:40;28.00;51.20
63317;DHT22;49822;41.468;13.560;2022-09-11T14:26:12;28.20;51.50
63317;DHT22;49822;41.468;13.560;2022-09-11T14:34:16;27.50;52.60
63317;DHT22;49822;41.468;13.560;2022-09-11T14:36:51;27.40;53.60
63317;DHT22;49822;41.468;13.560;2022-09-11T14:39:38;27.30;54.00
63317;DHT22;49822;41.468;13.560;2022-09-11T14:42:18;27.40;54.40
63317;DHT22;49822;41.468;13.560;2022-09-11T14:44:48;27.20;54.00
63317;DHT22;49822;41.468;13.560;2022-09-11T14:47:23;27.20;54.50
63317;DHT22;49822;41.468;13.560;2022-09-11T14:49:52;27.10;55.00
63317;DHT22;49822;41.468;13.560;2022-09-11T14:52:23;27.10;55.70
63317;DHT22;49822;41.468;13.560;2022-09-11T14:54:51;27.20;56.20
63317;DHT22;49822;41.468;13.560;2022-09-11T14:57:23;27.10;55.00
63317;DHT22;49822;41.468;13.560;2022-09-11T14:59:53;26.80;56.30
63317;DHT22;49822;41.468;13.560;2022-09-11T15:02:22;26.60;56.00
63317;DHT22;49822;41.468;13.560;2022-09-11T15:04:52;26.60;56.00
63317;DHT22;49822;41.468;13.560;2022-09-11T15:07:21;26.50;55.80
63317;DHT22;49822;41.468;13.560;2022-09-11T15:09:53;26.50;56.50
63317;DHT22;49822;41.468;13.560;2022-09-11T15:12:21;26.50;56.70
63317;DHT22;49822;41.468;13.560;2022-09-11T15:14:49;26.50;56.70
63317;DHT22;49822;41.468;13.560;2022-09-11T15:17:25;26.50;56.40
63317;DHT22;49822;41.468;13.560;2022-09-11T15:19:58;26.50;56.60
63317;DHT22;49822;41.468;13.560;2022-09-11T15:22:27;26.40;57.10
63317;DHT22;49822;41.468;13.560;2022-09-11T15:24:54;26.40;56.90
63317;DHT22;49822;41.468;13.560;2022-09-11T15:27:23;26.50;57.80
63317;DHT22;49822;41.468;13.560;2022-09-11T15:29:52;26.50;57.90
63317;DHT22;49822;41.468;13.560;2022-09-11T15:32:20;26.40;58.30
63317;DHT22;49822;41.468;13.560;2022-09-11T15:34:47;26.20;58.40
63317;DHT22;49822;41.468;13.560;2022-09-11T15:37:14;26.00;58.60
63317;DHT22;49822;41.468;13.560;2022-09-11T15:39:45;26.00;59.00
63317;DHT22;49822;41.468;13.560;2022-09-11T15:42:12;26.00;59.50
63317;DHT22;49822;41.468;13.560;2022-09-11T15:44:40;25.80;59.90
63317;DHT22;49822;41.468;13.560;2022-09-11T15:47:07;25.80;60.00
63317;DHT22;49822;41.468;13.560;2022-09-11T15:49:41;25.80;60.10
63317;DHT22;49822;41.468;13.560;2022-09-11T15:52:14;25.60;60.40
63317;DHT22;49822;41.468;13.560;2022-09-11T15:54:41;25.60;60.80
63317;DHT22;49822;41.468;13.560;2022-09-11T15:57:11;25.70;60.50
63317;DHT22;49822;41.468;13.560;2022-09-11T15:59:39;25.80;60.40
63317;DHT22;49822;41.468;13.560;2022-09-11T16:02:07;25.80;60.00
63317;DHT22;49822;41.468;13.560;2022-09-11T16:04:35;25.80;60.00
63317;DHT22;49822;41.468;13.560;2022-09-11T16:07:03;25.80;59.90
63317;DHT22;49822;41.468;13.560;2022-09-11T16:09:31;25.80;60.00
63317;DHT22;49822;41.468;13.560;2022-09-11T16:11:59;25.90;60.10
63317;DHT22;49822;41.468;13.560;2022-09-11T16:14:33;26.00;59.60
63317;DHT22;49822;41.468;13.560;2022-09-11T16:17:03;26.10;59.70
63317;DHT22;49822;41.468;13.560;2022-09-11T16:19:32;26.20;59.00
63317;DHT22;49822;41.468;13.560;2022-09-11T16:22:02;26.00;59.80
63317;DHT22;49822;41.468;13.560;2022-09-11T16:24:31;26.00;59.70
63317;DHT22;49822;41.468;13.560;2022-09-11T16:26:59;25.60;61.00
63317;DHT22;49822;41.468;13.560;2022-09-11T16:29:27;25.40;61.60
63317;DHT22;49822;41.468;13.560;2022-09-11T16:32:15;25.20;62.10
63317;DHT22;49822;41.468;13.560;2022-09-11T16:34:57;25.00;63.00
63317;DHT22;49822;41.468;13.560;2022-09-11T16:37:26;25.00;63.00
63317;DHT22;49822;41.468;13.560;2022-09-11T16:39:54;25.00;63.20
63317;DHT22;49822;41.468;13.560;2022-09-11T16:42:23;25.00;63.60
63317;DHT22;49822;41.468;13.560;2022-09-11T16:44:50;25.00;63.70
63317;DHT22;49822;41.468;13.560;2022-09-11T16:47:17;25.00;64.00
63317;DHT22;49822;41.468;13.560;2022-09-11T16:49:48;24.80;65.00
63317;DHT22;49822;41.468;13.560;2022-09-11T16:52:33;24.80;64.30
63317;DHT22;49822;41.468;13.560;2022-09-11T16:55:01;24.80;63.70
63317;DHT22;49822;41.468;13.560;2022-09-11T16:57:29;24.80;64.10
63317;DHT22;49822;41.468;13.560;2022-09-11T16:59:57;24.80;64.40
63317;DHT22;49822;41.468;13.560;2022-09-11T17:02:25;24.70;64.60
63317;DHT22;49822;41.468;13.560;2022-09-11T17:04:53;24.70;65.20
63317;DHT22;49822;41.468;13.560;2022-09-11T17:07:20;24.60;65.60
63317;DHT22;49822;41.468;13.560;2022-09-11T17:09:49;24.50;66.10
63317;DHT22;49822;41.468;13.560;2022-09-11T17:12:17;24.50;66.40
63317;DHT22;49822;41.468;13.560;2022-09-11T17:14:44;24.40;66.50
63317;DHT22;49822;41.468;13.560;2022-09-11T17:17:12;24.30;66.80
63317;DHT22;49822;41.468;13.560;2022-09-11T17:19:40;24.20;67.30
63317;DHT22;49822;41.468;13.560;2022-09-11T17:22:07;24.20;67.50
63317;DHT22;49822;41.468;13.560;2022-09-11T17:24:37;24.30;67.00
63317;DHT22;49822;41.468;13.560;2022-09-11T17:27:05;24.30;66.50
63317;DHT22;49822;41.468;13.560;2022-09-11T17:29:33;24.20;66.90
63317;DHT22;49822;41.468;13.560;2022-09-11T17:32:01;24.20;66.90
63317;DHT22;49822;41.468;13.560;2022-09-11T17:34:49;24.20;67.50
63317;DHT22;49822;41.468;13.560;2022-09-11T17:37:17;24.10;68.10
63317;DHT22;49822;41.468;13.560;2022-09-11T17:39:44;24.00;68.30
63317;DHT22;49822;41.468;13.560;2022-09-11T17:42:12;24.00;68.70
63317;DHT22;49822;41.468;13.560;2022-09-11T17:44:40;24.00;68.30
63317;DHT22;49822;41.468;13.560;2022-09-11T17:47:08;24.00;68.20
63317;DHT22;49822;41.468;13.560;2022-09-11T17:49:35;24.00;68.00
63317;DHT22;49822;41.468;13.560;2022-09-11T17:52:03;23.90;68.60
63317;DHT22;49822;41.468;13.560;2022-09-11T17:54:30;23.90;68.80
63317;DHT22;49822;41.468;13.560;2022-09-11T17:56:57;23.80;69.00
63317;DHT22;49822;41.468;13.560;2022-09-11T17:59:25;23.80;69.30
63317;DHT22;49822;41.468;13.560;2022-09-11T18:01:53;23.70;69.90
63317;DHT22;49822;41.468;13.560;2022-09-11T18:04:21;23.60;70.40
63317;DHT22;49822;41.468;13.560;2022-09-11T18:06:50;23.50;70.60